Time;durP1;ratioP1;P1;durP2;ratioP2;P2;SDS_P1;SDS_P2;PMS_P1;PMS_P2;Temp;Humidity;BMP_temperature;BMP_pressure;BME280_temperature;BME280_humidity;BME280_pressure;Samples;Min_cycle;Max_cycle;Signal;HPM_P1;HPM_P2
2022/08/16 00:01:12;;;;;;;0.10;0.10;;;;;;;24.46;52.88;100246.53;5075591;28;20389;-34
2022/08/16 00:03:38;;;;;;;0.10;0.10;;;;;;;24.46;52.84;100252.09;5112582;28;20039;-34
2022/08/16 00:06:06;;;;;;;0.00;0.00;;;;;;;24.47;52.97;100258.47;5111358;28;20041;-34
2022/08/16 00:08:32;;;;;;;0.10;0.10;;;;;;;24.48;52.88;100254.53;5112143;28;20047;-34
2022/08/16 00:11:05;;;;;;;0.10;0.10;;;;;;;24.46;52.83;100260.44;5112267;28;20524;-34
2022/08/16 00:13:32;;;;;;;;;;;;;;;24.47;52.91;100264.06;5095310;28;20127;-34
2022/08/16 00:16:07;;;;;;;0.10;0.10;;;;;;;24.45;53.00;100256.03;5110086;28;19928;-34
2022/08/16 00:18:53;;;;;;;0.10;0.10;;;;;;;24.46;52.98;100259.63;5099677;28;20466;-34
2022/08/16 00:21:18;;;;;;;0.00;0.00;;;;;;;24.46;52.85;100260.44;5112542;28;20103;-34
2022/08/16 00:23:48;;;;;;;0.10;0.10;;;;;;;24.46;52.87;100268.81;5112379;28;20085;-34
2022/08/16 00:26:14;;;;;;;0.10;0.10;;;;;;;24.46;52.86;100276.34;5113247;28;20047;-34
2022/08/16 00:29:00;;;;;;;0.10;0.10;;;;;;;24.46;53.00;100276.34;5082983;28;20495;-34
2022/08/16 00:31:30;;;;;;;0.10;0.10;;;;;;;24.46;52.96;100276.34;5114565;28;20388;-35
2022/08/16 00:34:17;;;;;;;0.00;0.00;;;;;;;24.45;53.02;100281.09;5096821;28;20044;-34
2022/08/16 00:36:45;;;;;;;0.10;0.10;;;;;;;24.46;52.93;100281.91;5110107;28;20039;-34
2022/08/16 00:39:13;;;;;;;0.10;0.10;;;;;;;24.45;52.90;100281.09;5113503;28;20051;-34
2022/08/16 00:41:42;;;;;;;0.00;0.00;;;;;;;24.46;52.85;100279.13;5114386;28;20073;-34
2022/08/16 00:44:12;;;;;;;0.10;0.10;;;;;;;24.44;53.04;100279.47;5112047;28;20058;-34
2022/08/16 00:46:45;;;;;;;0.10;0.10;;;;;;;24.44;52.95;100273.91;5092546;28;20123;-34
2022/08/16 00:49:27;;;;;;;0.10;0.10;;;;;;;24.45;52.84;100278.31;5112465;28;20096;-34
2022/08/16 00:52:04;;;;;;;0.10;0.10;;;;;;;24.44;52.89;100273.91;5095290;28;20040;-34
2022/08/16 00:54:50;;;;;;;0.00;0.00;;;;;;;24.45;52.92;100280.28;5087280;28;20048;-34
2022/08/16 00:57:17;;;;;;;0.10;0.10;;;;;;;24.45;52.85;100280.28;5116122;28;20043;-34
2022/08/16 00:59:43;;;;;;;0.10;0.10;;;;;;;24.45;52.76;100285.84;5115617;28;20534;-34
2022/08/16 01:02:25;;;;;;;0.10;0.10;;;;;;;24.44;52.98;100281.44;5113435;28;20047;-35
2022/08/16 01:04:57;;;;;;;0.10;0.10;;;;;;;24.44;52.99;100276.69;5112584;28;20476;-34
2022/08/16 01:07:39;;;;;;;0.10;0.10;;;;;;;24.44;53.00;100281.44;5110338;28;20552;-34
2022/08/16 01:10:21;;;;;;;0.00;0.00;;;;;;;24.44;52.84;100284.22;5110328;28;20040;-35
2022/08/16 01:13:03;;;;;;;0.10;0.10;;;;;;;24.44;52.94;100281.44;5115387;28;20039;-34
2022/08/16 01:15:32;;;;;;;0.10;0.10;;;;;;;24.45;52.90;100288.63;5093043;28;20051;-34
2022/08/16 01:17:58;;;;;;;0.10;0.10;;;;;;;24.44;52.81;100287.81;5093624;28;20122;-37
2022/08/16 01:20:26;;;;;;;0.10;0.10;;;;;;;24.44;52.91;100285.03;5112559;28;20108;-35
2022/08/16 01:23:03;;;;;;;0.10;0.10;;;;;;;24.43;52.89;100288.94;5114658;28;20171;-34
2022/08/16 01:25:36;;;;;;;0.00;0.00;;;;;;;24.44;52.85;100289.78;5109691;28;20138;-34
2022/08/16 01:28:06;;;;;;;0.10;0.10;;;;;;;24.44;52.96;100289.78;5094470;28;20074;-34
2022/08/16 01:30:37;;;;;;;0.00;0.00;;;;;;;24.44;52.96;100281.44;5112764;28;20100;-35
2022/08/16 01:33:06;;;;;;;0.10;0.10;;;;;;;24.44;52.87;100287.00;5101250;28;20036;-34
2022/08/16 01:35:47;;;;;;;0.10;0.10;;;;;;;24.44;52.80;100287.00;5109789;28;20048;-34
2022/08/16 01:38:23;;;;;;;0.10;0.10;;;;;;;24.43;52.80;100280.59;5084152;28;20070;-34
2022/08/16 01:40:56;;;;;;;0.10;0.10;;;;;;;24.42;52.97;100278.97;5094768;28;20047;-34
2022/08/16 01:43:23;;;;;;;0.10;0.10;;;;;;;24.43;52.97;100285.34;5096497;28;20166;-34
2022/08/16 01:45:54;;;;;;;0.10;0.10;;;;;;;24.42;52.86;100278.97;5091231;28;22245;-34
2022/08/16 01:48:26;;;;;;;0.10;0.10;;;;;;;24.43;52.93;100275.03;5095414;28;20096;-34
2022/08/16 01:50:53;;;;;;;0.10;0.10;;;;;;;24.43;52.91;100288.94;5093199;28;20401;-34
2022/08/16 01:53:39;;;;;;;0.10;0.10;;;;;;;24.42;52.84;100281.75;5080990;28;20504;-34
2022/08/16 01:56:06;;;;;;;0.05;0.05;;;;;;;24.43;52.89;100277.00;5110405;28;20048;-34
2022/08/16 01:58:32;;;;;;;0.10;0.10;;;;;;;24.42;52.92;100281.75;5096147;28;20063;-34
2022/08/16 02:00:58;;;;;;;0.10;0.10;;;;;;;24.43;52.99;100285.34;5110999;28;20046;-35
2022/08/16 02:03:23;;;;;;;0.10;0.10;;;;;;;24.41;52.97;100282.09;5111249;28;20048;-34
2022/08/16 02:05:52;;;;;;;0.10;0.10;;;;;;;24.42;52.94;100284.53;5110562;28;20051;-34
2022/08/16 02:08:17;;;;;;;0.10;0.10;;;;;;;24.42;52.89;100287.31;5092579;28;20036;-34
2022/08/16 02:11:01;;;;;;;0.10;0.10;;;;;;;24.43;52.91;100286.16;5094887;28;20040;-34
2022/08/16 02:13:27;;;;;;;0.10;0.10;;;;;;;24.42;52.84;100280.94;5111394;28;20055;-34
2022/08/16 02:15:58;;;;;;;0.10;0.10;;;;;;;24.42;52.89;100289.28;5110171;28;20097;-34
2022/08/16 02:18:23;;;;;;;0.10;0.10;;;;;;;24.42;52.93;100295.66;5110558;28;20047;-34
2022/08/16 02:20:50;;;;;;;0.10;0.10;;;;;;;24.42;52.93;100286.50;5115920;28;20062;-35
2022/08/16 02:23:19;;;;;;;0.10;0.10;;;;;;;24.42;52.84;100286.50;5109996;28;20079;-34
2022/08/16 02:25:46;;;;;;;0.10;0.10;;;;;;;24.41;52.88;100287.66;5091218;28;20077;-34
2022/08/16 02:28:17;;;;;;;0.10;0.10;;;;;;;24.42;52.85;100280.94;5115515;28;20041;-34
2022/08/16 02:30:45;;;;;;;0.10;0.10;;;;;;;24.42;53.03;100280.94;5077034;28;21290;-34
2022/08/16 02:33:16;;;;;;;0.10;0.10;;;;;;;24.41;52.77;100273.75;5114462;28;20036;-35
2022/08/16 02:35:42;;;;;;;0.10;0.10;;;;;;;24.40;52.91;100272.94;5112690;28;20246;-35
2022/08/16 02:38:24;;;;;;;0.10;0.10;;;;;;;24.41;52.82;100279.31;5109559;28;20575;-35
2022/08/16 02:40:50;;;;;;;0.00;0.00;;;;;;;24.40;52.80;100267.38;5111003;28;20439;-34
2022/08/16 02:43:16;;;;;;;0.10;0.10;;;;;;;24.41;52.89;100273.75;5090417;28;20480;-34
2022/08/16 02:45:42;;;;;;;0.10;0.10;;;;;;;24.40;52.94;100267.38;5091290;28;20140;-34
2022/08/16 02:48:09;;;;;;;0.10;0.10;;;;;;;24.41;52.94;100266.22;5114637;28;20043;-34
2022/08/16 02:50:56;;;;;;;0.10;0.10;;;;;;;24.41;52.98;100268.19;5098427;28;20047;-35
2022/08/16 02:53:41;;;;;;;0.10;0.10;;;;;;;24.41;52.92;100262.59;5113333;28;20432;-34
2022/08/16 02:56:10;;;;;;;0.20;0.20;;;;;;;24.41;52.97;100270.97;5098726;28;20046;-34
2022/08/16 02:58:37;;;;;;;0.10;0.10;;;;;;;24.41;53.02;100274.56;5113470;28;20071;-34
2022/08/16 03:01:05;;;;;;;0.10;0.10;;;;;;;24.40;52.91;100269.34;5114968;28;20035;-34
2022/08/16 03:03:33;;;;;;;0.10;0.10;;;;;;;24.40;52.87;100275.72;5113674;28;20050;-34
2022/08/16 03:06:20;;;;;;;0.20;0.20;;;;;;;24.40;53.01;100272.13;5098911;28;20280;-34
2022/08/16 03:09:05;;;;;;;0.10;0.10;;;;;;;24.40;52.90;100277.69;5096664;28;20055;-34
2022/08/16 03:11:31;;;;;;;0.10;0.10;;;;;;;24.40;52.96;100283.25;5114491;28;20039;-34
2022/08/16 03:14:01;;;;;;;0.10;0.10;;;;;;;24.40;52.82;100283.25;5112878;28;21426;-34
2022/08/16 03:16:32;;;;;;;0.10;0.10;;;;;;;24.40;52.90;100289.63;5111431;28;20126;-34
2022/08/16 03:19:08;;;;;;;0.10;0.10;;;;;;;24.39;52.92;100278.81;5094778;28;20055;-34
2022/08/16 03:21:34;;;;;;;0.10;0.10;;;;;;;24.40;52.90;100283.25;5114954;28;20085;-34
2022/08/16 03:24:05;;;;;;;0.10;0.10;;;;;;;24.39;53.00;100276.03;5094400;28;20496;-34
2022/08/16 03:26:51;;;;;;;0.10;0.10;;;;;;;24.39;52.83;100285.19;5089452;28;20035;-34
2022/08/16 03:29:16;;;;;;;0.10;0.10;;;;;;;24.39;52.95;100289.94;5113381;28;20050;-34
2022/08/16 03:31:42;;;;;;;0.10;0.10;;;;;;;24.39;52.89;100287.97;5113201;28;20052;-34
2022/08/16 03:34:08;;;;;;;0.10;0.10;;;;;;;24.40;52.83;100291.59;5118082;28;20068;-34
2022/08/16 03:36:34;;;;;;;0.10;0.10;;;;;;;24.39;52.88;100287.16;5093498;28;20047;-34
2022/08/16 03:39:01;;;;;;;0.10;0.10;;;;;;;24.39;52.97;100293.53;5110142;28;20454;-34
2022/08/16 03:41:28;;;;;;;0.10;0.10;;;;;;;24.40;52.91;100294.38;5112787;28;20165;-34
2022/08/16 03:44:15;;;;;;;0.10;0.10;;;;;;;24.40;52.90;100294.38;5096605;28;20074;-34
2022/08/16 03:47:01;;;;;;;0.10;0.10;;;;;;;24.39;52.86;100292.72;5083612;28;20047;-34
2022/08/16 03:49:26;;;;;;;0.10;0.10;;;;;;;24.39;52.92;100289.94;5113648;28;20147;-34
2022/08/16 03:52:03;;;;;;;0.10;0.10;;;;;;;24.39;52.99;100296.31;5115058;28;20168;-34
2022/08/16 03:54:29;;;;;;;0.10;0.10;;;;;;;24.39;52.83;100293.53;5118734;28;20035;-35
2022/08/16 03:56:54;;;;;;;0.03;0.03;;;;;;;24.39;52.83;100289.94;5118695;27;20051;-34
2022/08/16 03:59:22;;;;;;;0.10;0.10;;;;;;;24.38;52.83;100286.34;5113852;28;20054;-35
2022/08/16 04:01:48;;;;;;;0.10;0.10;;;;;;;24.39;52.80;100287.97;5092221;28;20126;-34
2022/08/16 04:04:19;;;;;;;0.10;0.10;;;;;;;24.39;52.92;100295.50;5114291;28;20039;-34
2022/08/16 04:06:58;;;;;;;0.10;0.10;;;;;;;24.38;52.98;100291.91;5095118;28;20044;-34
2022/08/16 04:09:23;;;;;;;0.10;0.10;;;;;;;24.39;53.04;100298.28;5115730;28;20484;-35
2022/08/16 04:11:49;;;;;;;0.00;0.00;;;;;;;24.39;52.82;100301.06;5117002;28;20051;-34
2022/08/16 04:14:17;;;;;;;;;;;;;;;24.38;52.94;100293.88;5112792;28;20047;-34
2022/08/16 04:16:59;;;;;;;0.10;0.10;;;;;;;24.37;52.90;100301.41;5111491;28;19928;-34
2022/08/16 04:19:27;;;;;;;0.10;0.10;;;;;;;24.37;53.00;100301.41;5100947;28;20043;-34
2022/08/16 04:21:57;;;;;;;0.10;0.10;;;;;;;24.37;52.91;100304.19;5112473;28;20462;-34
2022/08/16 04:24:22;;;;;;;0.10;0.10;;;;;;;24.38;52.94;100316.97;5095145;28;20045;-34
2022/08/16 04:26:54;;;;;;;0.10;0.10;;;;;;;24.38;52.86;100314.19;5113097;28;20043;-35
2022/08/16 04:29:20;;;;;;;0.52;0.10;;;;;;;24.38;52.80;100319.75;5094079;28;20051;-34
2022/08/16 04:31:51;;;;;;;0.10;0.10;;;;;;;24.38;52.97;100318.94;5095268;28;20040;-34
2022/08/16 04:34:24;;;;;;;0.10;0.10;;;;;;;24.39;52.86;100324.16;5113622;28;20042;-34
2022/08/16 04:36:52;;;;;;;0.10;0.10;;;;;;;24.37;52.96;100326.47;5094085;28;20047;-34
2022/08/16 04:39:18;;;;;;;0.10;0.10;;;;;;;24.38;52.76;100335.63;5091769;28;20043;-34
2022/08/16 04:41:49;;;;;;;0.10;0.10;;;;;;;24.38;52.80;100330.88;5113385;28;20050;-34
2022/08/16 04:44:23;;;;;;;0.00;0.00;;;;;;;24.37;52.90;100329.25;5110492;28;20122;-34
2022/08/16 04:47:08;;;;;;;0.10;0.10;;;;;;;24.38;52.82;100335.63;5095221;28;20509;-34
2022/08/16 04:49:50;;;;;;;0.10;0.10;;;;;;;24.38;53.06;100332.84;5115188;28;20130;-34
2022/08/16 04:52:17;;;;;;;;;;;;;;;24.38;52.90;100338.41;5113088;28;20048;-34
2022/08/16 04:55:04;;;;;;;0.10;0.10;;;;;;;24.37;52.83;100345.09;5112277;28;19923;-34
2022/08/16 04:57:30;;;;;;;0.10;0.10;;;;;;;24.38;52.76;100349.53;5110331;28;20083;-35
2022/08/16 04:59:56;;;;;;;0.10;0.10;;;;;;;24.37;52.84;100348.72;5110701;28;20043;-34
2022/08/16 05:02:21;;;;;;;0.10;0.10;;;;;;;24.36;52.90;100349.84;5111227;28;20383;-34
2022/08/16 05:05:09;;;;;;;0.10;0.10;;;;;;;24.38;52.76;100344.78;5096254;28;20048;-34
2022/08/16 05:07:43;;;;;;;0.10;0.10;;;;;;;24.38;52.79;100346.75;5113585;28;20085;-34
2022/08/16 05:10:26;;;;;;;0.10;0.10;;;;;;;24.37;52.93;100350.66;5093488;28;20142;-35
2022/08/16 05:12:52;;;;;;;0.10;0.10;;;;;;;24.38;52.73;100352.31;5092970;28;20048;-34
2022/08/16 05:15:18;;;;;;;0.10;0.10;;;;;;;24.37;52.80;100357.06;5105811;28;20315;-34
2022/08/16 05:17:45;;;;;;;0.10;0.10;;;;;;;24.37;52.76;100362.63;5110655;28;20043;-34
2022/08/16 05:20:12;;;;;;;0.10;0.10;;;;;;;24.37;52.84;100367.34;5089621;28;20039;-34
2022/08/16 05:22:57;;;;;;;0.10;0.10;;;;;;;24.37;52.91;100365.41;5095096;28;20366;-34
2022/08/16 05:25:23;;;;;;;0.10;0.10;;;;;;;24.36;52.91;100358.19;5109127;28;20046;-34
2022/08/16 05:28:09;;;;;;;0.10;0.10;;;;;;;24.28;52.70;100368.19;5110187;28;20040;-37
2022/08/16 05:30:37;;;;;;;0.10;0.10;;;;;;;24.35;52.61;100366.84;5108403;28;20070;-37
2022/08/16 05:33:04;;;;;;;0.10;0.10;;;;;;;24.37;52.91;100364.56;5103338;28;20040;-37
2022/08/16 05:35:30;;;;;;;0.10;0.10;;;;;;;24.38;52.76;100363.44;5088010;28;20492;-38
2022/08/16 05:37:57;;;;;;;0.00;0.00;;;;;;;24.38;52.72;100355.09;5106736;28;20058;-37
2022/08/16 05:40:24;;;;;;;0.10;0.10;;;;;;;24.41;52.69;100354.44;5106932;28;20046;-37
2022/08/16 05:42:52;;;;;;;0.00;0.00;;;;;;;24.41;52.70;100360.03;5108570;28;20471;-37
2022/08/16 05:45:21;;;;;;;0.10;0.10;;;;;;;24.40;52.59;100353.63;5087922;28;20043;-36
2022/08/16 05:47:48;;;;;;;0.10;0.10;;;;;;;24.41;52.73;100351.66;5106380;28;20066;-36
2022/08/16 05:50:25;;;;;;;0.10;0.10;;;;;;;24.41;52.60;100349.69;5105244;28;20138;-37
2022/08/16 05:52:59;;;;;;;0.10;0.10;;;;;;;24.44;52.64;100356.59;5105604;28;20592;-36
2022/08/16 05:55:26;;;;;;;0.10;0.10;;;;;;;24.44;52.69;100362.16;5101407;28;20091;-37
2022/08/16 05:57:55;;;;;;;0.10;0.10;;;;;;;24.43;52.70;100366.88;5099566;28;20102;-36
2022/08/16 06:00:21;;;;;;;0.10;0.10;;;;;;;24.43;52.64;100378.00;5101071;28;20047;-36
2022/08/16 06:02:48;;;;;;;0.10;0.10;;;;;;;24.44;52.70;100388.00;5082444;28;20047;-36
2022/08/16 06:05:16;;;;;;;0.00;0.00;;;;;;;24.43;52.81;100383.56;5103398;28;20043;-37
2022/08/16 06:07:42;;;;;;;0.10;0.10;;;;;;;24.43;52.75;100383.56;5089545;28;20158;-36
2022/08/16 06:10:08;;;;;;;0.10;0.10;;;;;;;24.45;52.59;100383.25;5102056;28;20055;-36
2022/08/16 06:12:35;;;;;;;0.10;0.10;;;;;;;24.44;52.75;100389.97;5097713;28;20561;-36
2022/08/16 06:15:06;;;;;;;0.10;0.10;;;;;;;24.35;52.94;100383.56;5080078;28;20047;-42
2022/08/16 06:17:36;;;;;;;0.10;0.10;;;;;;;24.42;52.75;100386.69;5082614;28;20054;-38
2022/08/16 06:20:13;;;;;;;0.10;0.10;;;;;;;24.45;52.86;100380.47;5101555;28;20086;-36
2022/08/16 06:22:38;;;;;;;0.10;0.10;;;;;;;24.45;52.77;100386.84;5098302;28;20046;-36
2022/08/16 06:25:05;;;;;;;0.10;0.10;;;;;;;24.48;52.65;100382.59;5089652;28;20436;-37
2022/08/16 06:27:31;;;;;;;0.10;0.10;;;;;;;24.46;52.50;100385.72;5105201;28;20479;-36
2022/08/16 06:30:08;;;;;;;0.10;0.10;;;;;;;24.47;52.54;100383.72;5105812;28;20047;-36
2022/08/16 06:32:34;;;;;;;0.10;0.10;;;;;;;24.48;52.43;100379.78;5084613;28;20128;-37
2022/08/16 06:35:10;;;;;;;0.10;0.10;;;;;;;24.47;52.48;100375.38;5103526;28;20040;-36
2022/08/16 06:37:36;;;;;;;0.10;0.10;;;;;;;24.50;52.44;100377.53;5089476;28;20096;-37
2022/08/16 06:40:04;;;;;;;0.10;0.10;;;;;;;24.51;52.52;100384.72;5084843;28;20531;-37
2022/08/16 06:42:30;;;;;;;0.10;0.10;;;;;;;24.53;53.10;100383.25;5102399;28;20055;-37
2022/08/16 06:45:13;;;;;;;0.10;0.10;;;;;;;24.54;52.91;100386.84;5087046;28;20070;-37
2022/08/16 06:47:40;;;;;;;0.10;0.10;;;;;;;24.53;52.79;100396.34;5103582;28;20044;-36
2022/08/16 06:50:22;;;;;;;0.10;0.10;;;;;;;24.52;53.04;100405.81;5082270;28;20491;-36
2022/08/16 06:52:55;;;;;;;0.15;0.15;;;;;;;24.54;52.86;100400.75;5080320;28;20050;-37
2022/08/16 06:55:26;;;;;;;0.10;0.10;;;;;;;24.55;52.94;100393.22;5077591;28;20051;-36
2022/08/16 06:58:00;;;;;;;0.10;0.10;;;;;;;24.55;52.83;100399.59;5094581;28;20143;-37
2022/08/16 07:00:26;;;;;;;0.10;0.10;;;;;;;24.56;52.86;100400.44;5059329;28;20063;-38
2022/08/16 07:02:52;;;;;;;0.10;0.10;;;;;;;24.57;52.62;100400.13;5097870;28;20079;-41
2022/08/16 07:05:19;;;;;;;0.10;0.10;;;;;;;24.42;53.10;100397.81;5086210;28;20082;-53
2022/08/16 07:07:52;;;;;;;0.10;0.10;;;;;;;24.40;53.47;100392.59;5070248;28;20047;-40
2022/08/16 07:10:19;;;;;;;0.10;0.10;;;;;;;24.54;53.11;100389.63;5091837;28;20101;-39
2022/08/16 07:12:52;;;;;;;0.10;0.10;;;;;;;24.57;53.12;100393.69;5090648;28;20047;-39
2022/08/16 07:15:36;;;;;;;0.10;0.10;;;;;;;24.59;52.98;100402.56;5096556;28;20047;-39
2022/08/16 07:18:18;;;;;;;0.10;0.10;;;;;;;24.58;52.98;100400.94;5079276;28;20136;-38
2022/08/16 07:20:45;;;;;;;0.10;0.10;;;;;;;24.59;52.94;100405.34;5092391;28;20051;-38
2022/08/16 07:23:13;;;;;;;0.10;0.10;;;;;;;24.59;53.03;100405.34;5104847;28;20196;-38
2022/08/16 07:25:40;;;;;;;0.10;0.10;;;;;;;24.60;53.20;100418.09;5104180;28;20055;-39
2022/08/16 07:28:06;;;;;;;0.10;0.10;;;;;;;24.59;52.88;100414.50;5087510;28;20047;-38
2022/08/16 07:30:38;;;;;;;0.10;0.10;;;;;;;24.58;53.12;100412.88;5100139;28;20058;-39
2022/08/16 07:33:13;;;;;;;0.10;0.10;;;;;;;24.58;53.11;100426.81;5086316;28;20066;-38
2022/08/16 07:35:41;;;;;;;0.10;0.10;;;;;;;24.59;53.19;100420.06;5083519;28;20043;-39
2022/08/16 07:38:10;;;;;;;0.10;0.10;;;;;;;24.60;52.97;100418.09;5103476;28;20414;-39
2022/08/16 07:40:37;;;;;;;0.10;0.10;;;;;;;24.59;53.00;100422.03;5102798;28;20043;-39
2022/08/16 07:43:24;;;;;;;0.10;0.10;;;;;;;24.60;53.01;100427.28;5074987;28;20524;-40
2022/08/16 07:45:54;;;;;;;0.10;0.10;;;;;;;24.62;53.05;100435.31;5100916;28;20383;-40
2022/08/16 07:48:20;;;;;;;0.10;0.10;;;;;;;24.60;53.08;100429.25;5105687;28;20148;-39
2022/08/16 07:50:47;;;;;;;0.10;0.10;;;;;;;24.59;53.08;100433.19;5099945;28;20138;-39
2022/08/16 07:53:24;;;;;;;0.03;0.03;;;;;;;24.62;52.84;100433.34;5101636;28;20090;-39
2022/08/16 07:55:54;;;;;;;0.10;0.10;;;;;;;24.65;53.01;100442.97;5102425;28;20082;-39
2022/08/16 07:58:19;;;;;;;0.10;0.10;;;;;;;24.64;52.89;100447.75;5100998;28;20055;-37
2022/08/16 08:01:04;;;;;;;0.10;0.10;;;;;;;24.64;53.12;100447.75;5103480;28;20047;-40
2022/08/16 08:03:36;;;;;;;0.10;0.10;;;;;;;24.64;53.10;100444.13;5087714;28;20643;-38
2022/08/16 08:06:05;;;;;;;0.10;0.10;;;;;;;24.66;53.09;100450.22;5079991;28;20058;-40
2022/08/16 08:08:35;;;;;;;0.10;0.10;;;;;;;24.65;52.97;100443.81;5098837;28;20048;-39
2022/08/16 08:11:18;;;;;;;0.10;0.10;;;;;;;24.65;53.08;100448.56;5089644;28;20048;-39
2022/08/16 08:13:43;;;;;;;0.10;0.10;;;;;;;24.66;52.98;100455.78;5095355;28;20036;-39
2022/08/16 08:16:09;;;;;;;0.10;0.10;;;;;;;24.65;53.14;100442.97;5099528;28;20047;-38
2022/08/16 08:18:44;;;;;;;0.10;0.10;;;;;;;24.67;53.39;100438.75;5079296;28;20055;-38
2022/08/16 08:21:25;;;;;;;0.10;0.10;;;;;;;24.67;53.07;100435.94;5081919;28;20437;-38
2022/08/16 08:24:13;;;;;;;0.10;0.10;;;;;;;24.66;53.20;100445.47;5067678;28;20047;-39
2022/08/16 08:26:41;;;;;;;0.10;0.10;;;;;;;24.66;53.17;100451.03;5098547;28;20167;-39
2022/08/16 08:29:08;;;;;;;;;;;;;;;24.63;53.63;100450.88;5076913;28;21277;-42
2022/08/16 08:31:35;;;;;;;0.00;0.00;;;;;;;24.58;54.23;100446.28;5089855;28;20134;-37
2022/08/16 08:34:03;;;;;;;0.10;0.10;;;;;;;24.65;53.61;100452.16;5092111;28;20157;-38
2022/08/16 08:36:31;;;;;;;0.10;0.10;;;;;;;24.70;53.55;100459.53;5088320;28;21352;-40
2022/08/16 08:38:59;;;;;;;0.10;0.10;;;;;;;24.70;53.73;100453.97;5069341;28;20055;-48
2022/08/16 08:41:28;;;;;;;0.10;0.10;;;;;;;24.67;54.23;100455.44;5080012;28;20058;-37
2022/08/16 08:43:55;;;;;;;0.08;0.08;;;;;;;24.71;53.71;100466.75;5072250;28;20097;-37
2022/08/16 08:46:22;;;;;;;0.10;0.10;;;;;;;24.72;53.70;100468.38;5064506;28;20044;-37
2022/08/16 08:48:49;;;;;;;0.10;0.10;;;;;;;24.72;53.55;100471.16;5085462;28;20555;-37
2022/08/16 08:51:27;;;;;;;0.10;0.10;;;;;;;24.72;53.72;100465.59;5084610;28;20043;-37
2022/08/16 08:54:04;;;;;;;0.10;0.10;;;;;;;24.72;53.49;100468.38;5068570;28;20055;-37
2022/08/16 08:56:36;;;;;;;0.10;0.10;;;;;;;24.71;53.44;100466.75;5082201;28;20051;-37
2022/08/16 08:59:04;;;;;;;0.10;0.10;;;;;;;24.72;53.57;100463.63;5074910;28;20052;-37
2022/08/16 09:01:46;;;;;;;0.10;0.10;;;;;;;24.71;53.48;100464.78;5086267;28;20055;-37
2022/08/16 09:04:24;;;;;;;0.10;0.10;;;;;;;24.73;53.40;100467.22;5052016;28;20387;-37
2022/08/16 09:06:52;;;;;;;0.10;0.10;;;;;;;24.73;53.47;100458.88;5073322;28;20044;-37
2022/08/16 09:09:18;;;;;;;0.10;0.10;;;;;;;24.72;53.38;100468.38;5096935;28;20054;-38
2022/08/16 09:11:45;;;;;;;0.10;0.10;;;;;;;24.74;53.32;100468.84;5090482;28;20035;-37
2022/08/16 09:14:19;;;;;;;0.10;0.10;;;;;;;24.74;53.30;100468.84;5085738;28;20054;-37
2022/08/16 09:16:51;;;;;;;0.10;0.10;;;;;;;24.73;53.42;100467.22;5095980;28;20055;-38
2022/08/16 09:19:37;;;;;;;0.20;0.10;;;;;;;24.75;53.25;100464.94;5078229;28;20062;-38
2022/08/16 09:22:07;;;;;;;0.00;0.00;;;;;;;24.74;53.21;100471.63;5083826;28;20044;-38
2022/08/16 09:24:46;;;;;;;0.10;0.10;;;;;;;24.74;53.31;100466.91;5098800;28;20043;-36
2022/08/16 09:27:20;;;;;;;0.10;0.10;;;;;;;24.74;53.26;100474.41;5078132;28;20089;-37
2022/08/16 09:29:46;;;;;;;0.10;0.10;;;;;;;24.75;53.37;100482.47;5098342;28;20126;-37
2022/08/16 09:32:11;;;;;;;0.10;0.10;;;;;;;24.75;53.21;100473.28;5095577;28;20444;-38
2022/08/16 09:34:37;;;;;;;0.10;0.10;;;;;;;24.76;53.18;100480.50;5078255;28;20052;-37
2022/08/16 09:37:04;;;;;;;0.10;0.10;;;;;;;24.77;53.21;100465.41;5094883;28;20138;-36
2022/08/16 09:39:44;;;;;;;0.03;0.03;;;;;;;24.75;53.23;100476.91;5064110;28;20070;-37
2022/08/16 09:42:15;;;;;;;0.10;0.10;;;;;;;24.78;53.24;100472.63;5091472;28;20051;-36
2022/08/16 09:44:44;;;;;;;0.10;0.10;;;;;;;24.76;53.22;100470.16;5097977;28;20079;-36
2022/08/16 09:47:30;;;;;;;0.10;0.10;;;;;;;24.77;53.14;100471.78;5073346;28;20060;-36
2022/08/16 09:50:16;;;;;;;0.10;0.10;;;;;;;24.75;53.29;100460.19;5070329;28;20048;-36
2022/08/16 09:52:48;;;;;;;0.10;0.10;;;;;;;24.77;53.20;100471.78;5090595;28;20071;-36
2022/08/16 09:55:14;;;;;;;0.10;0.10;;;;;;;24.75;53.24;100468.53;5088788;28;20505;-36
2022/08/16 09:57:40;;;;;;;0.10;0.10;;;;;;;24.76;53.29;100466.56;5092097;28;20048;-36
2022/08/16 10:00:17;;;;;;;;;;;;;;;24.76;53.24;100467.38;5081078;28;20135;-37
2022/08/16 10:03:04;;;;;;;0.10;0.10;;;;;;;24.73;53.25;100459.69;5084935;28;19924;-38
2022/08/16 10:05:35;;;;;;;0.10;0.10;;;;;;;24.75;53.25;100457.41;5093778;28;20094;-36
2022/08/16 10:08:03;;;;;;;0.00;0.00;;;;;;;24.76;53.20;100455.44;5078067;28;20132;-37
2022/08/16 10:13:34;;;;;;;0.10;0.10;;;;;;;24.75;53.18;100454.63;5091512;28;20243;-37
2022/08/16 10:16:00;;;;;;;0.10;0.10;;;;;;;24.74;53.38;100455.78;5089594;28;20040;-36
2022/08/16 10:18:28;;;;;;;0.10;0.10;;;;;;;24.74;53.12;100455.78;5098397;28;20501;-36
2022/08/16 10:21:14;;;;;;;0.00;0.00;;;;;;;24.73;53.11;100445.75;5080576;28;20496;-36
2022/08/16 10:23:41;;;;;;;0.10;0.10;;;;;;;24.73;53.21;100445.75;5093723;28;20051;-36
2022/08/16 10:26:08;;;;;;;0.10;0.10;;;;;;;24.74;52.91;100444.63;5078913;28;20722;-36
2022/08/16 10:28:54;;;;;;;0.10;0.10;;;;;;;24.75;53.06;100448.22;5084076;28;20052;-37
2022/08/16 10:31:19;;;;;;;0.10;0.10;;;;;;;24.75;53.02;100451.00;5099307;28;20052;-36
2022/08/16 10:34:05;;;;;;;0.10;0.10;;;;;;;24.75;53.08;100451.84;5080129;28;20051;-36
2022/08/16 10:36:51;;;;;;;0.10;0.10;;;;;;;24.74;53.22;100441.84;5086547;28;20043;-36
2022/08/16 10:39:19;;;;;;;0.10;0.10;;;;;;;24.74;53.12;100441.84;5093276;28;20796;-36
2022/08/16 10:41:46;;;;;;;0.10;0.10;;;;;;;24.76;53.12;100447.06;5094837;28;20044;-37
2022/08/16 10:44:14;;;;;;;0.10;0.10;;;;;;;24.74;53.09;100458.56;5088494;28;20089;-37
2022/08/16 10:46:42;;;;;;;0.10;0.10;;;;;;;24.74;53.08;100454.94;5087175;28;20125;-36
2022/08/16 10:49:10;;;;;;;0.10;0.10;;;;;;;24.75;53.12;100453.81;5095384;28;20047;-37
2022/08/16 10:51:38;;;;;;;0.10;0.10;;;;;;;24.74;52.93;100453.00;5076403;28;20063;-37
2022/08/16 10:54:24;;;;;;;0.10;0.10;;;;;;;24.73;53.15;100447.72;5076561;28;20044;-36
2022/08/16 10:56:58;;;;;;;0.10;0.10;;;;;;;24.73;53.00;100450.50;5096750;28;20052;-37
2022/08/16 10:59:25;;;;;;;0.03;0.03;;;;;;;24.75;52.89;100457.41;5079831;28;20043;-37
2022/08/16 11:02:11;;;;;;;0.10;0.10;;;;;;;24.74;53.09;100454.94;5071805;28;20043;-37
2022/08/16 11:04:57;;;;;;;0.10;0.10;;;;;;;24.74;52.97;100452.13;5070332;28;20469;-37
2022/08/16 11:07:32;;;;;;;0.10;0.10;;;;;;;24.73;52.99;100456.91;5100530;28;20422;-37
2022/08/16 11:10:23;;;;;;;0.10;0.10;;;;;;;24.74;53.04;100455.78;5090769;28;20047;-37
2022/08/16 11:13:11;;;;;;;0.10;0.10;;;;;;;24.74;52.77;100457.72;5092671;28;20079;-36
2022/08/16 11:15:57;;;;;;;0.10;0.10;;;;;;;24.74;52.87;100454.94;5089559;28;20070;-36
2022/08/16 11:18:24;;;;;;;0.10;0.10;;;;;;;24.73;52.94;100456.91;5103089;28;20125;-36
2022/08/16 11:21:09;;;;;;;0.10;0.10;;;;;;;24.73;52.98;100459.69;5078500;28;20054;-36
2022/08/16 11:23:55;;;;;;;0.10;0.10;;;;;;;24.73;52.88;100456.09;5107774;28;20130;-37
2022/08/16 11:26:24;;;;;;;0.10;0.10;;;;;;;24.74;51.17;100461.34;5107205;28;20089;-46
2022/08/16 11:28:51;;;;;;;0.10;0.10;;;;;;;24.77;50.46;100463.44;5102750;28;20079;-42
2022/08/16 11:31:37;;;;;;;0.10;0.10;;;;;;;24.82;51.19;100464.41;5090511;28;20051;-36
2022/08/16 11:34:03;;;;;;;0.10;0.10;;;;;;;24.83;50.50;100469.69;5104126;28;20497;-36
2022/08/16 11:36:29;;;;;;;0.10;0.10;;;;;;;24.78;51.38;100461.47;5101474;28;20071;-36
2022/08/16 11:38:58;;;;;;;0.10;0.10;;;;;;;24.76;51.77;100464.59;5103624;28;20540;-36
2022/08/16 11:41:26;;;;;;;0.10;0.10;;;;;;;24.74;51.94;100458.56;5087623;28;20048;-36
2022/08/16 11:43:57;;;;;;;0.10;0.10;;;;;;;24.74;52.04;100469.69;5098172;28;20466;-40
2022/08/16 11:46:23;;;;;;;0.10;0.10;;;;;;;24.77;52.00;100460.66;5103905;28;20043;-38
2022/08/16 11:49:09;;;;;;;0.10;0.10;;;;;;;24.76;51.96;100459.03;5090006;28;20120;-38
2022/08/16 11:51:42;;;;;;;0.10;0.10;;;;;;;24.78;52.04;100458.69;5101805;28;20405;-38